Decoded Metar for UUWW (MOSCOW/VNUKOVO in RUSSIA) (IATA:VKO) | Meteo·Mobile Aviation Weather
aviador You're here:

UUWW Decoded Metar

MOSCOW/VNUKOVO in RUSSIA
Report Time2018-12-16 10:00:00
UTC Time2018-12-16 10:15:00
Flight Rules ifr IFR
WindVRB at 2 kt
Visibility1700 m
Phenomena:Mist
Clouds:Scattered 001 Hf
Expected CloudBase > 800 ft AGL from Temp-Dew spread
CeilingNone
Temp-9°C (ISA -23)
Dew Point-11°C (86% RH)
AAT-12.8°C
QNH1037 hPa
Density Alt-2,940 ft
Elevation666 ft
Report Wrong Elevation
Raw Report
UUWW 161000Z VRB01MPS 4300 1700S BR SCT001 M09/M11 Q1037
R01/420245 NOSIG RMK QBB040=

Extra information for UUWW:More info

Metar Taf Metar & Taf Last 4 Metars F.Rules Stats Wind Profile Meteogram Temp Stats Airport Information Weather charts Add Link Nearby VenuesMetar ALERT Operation Metar Decoded Social comments